sensor_id;sensor_type;location;lat;lon;timestamp;P1;durP1;ratioP1;P2;durP2;ratioP2
572;SDS011;271;51.114;13.780;2023-09-19T00:00:40;18.33;;;2.00;;
572;SDS011;271;51.114;13.780;2023-09-19T00:03:31;16.43;;;2.20;;
572;SDS011;271;51.114;13.780;2023-09-19T00:06:18;16.80;;;1.80;;
572;SDS011;271;51.114;13.780;2023-09-19T00:09:06;19.47;;;2.00;;
572;SDS011;271;51.114;13.780;2023-09-19T00:11:56;16.13;;;1.83;;
572;SDS011;271;51.114;13.780;2023-09-19T00:14:44;16.27;;;2.00;;
572;SDS011;271;51.114;13.780;2023-09-19T00:17:31;16.40;;;2.13;;
572;SDS011;271;51.114;13.780;2023-09-19T00:20:22;18.70;;;2.60;;
572;SDS011;271;51.114;13.780;2023-09-19T00:23:10;16.47;;;2.13;;
572;SDS011;271;51.114;13.780;2023-09-19T00:25:58;19.73;;;2.37;;
572;SDS011;271;51.114;13.780;2023-09-19T00:28:46;17.80;;;2.13;;
572;SDS011;271;51.114;13.780;2023-09-19T00:31:34;16.70;;;2.53;;
572;SDS011;271;51.114;13.780;2023-09-19T00:34:23;16.70;;;1.97;;
572;SDS011;271;51.114;13.780;2023-09-19T00:37:12;19.60;;;2.27;;
572;SDS011;271;51.114;13.780;2023-09-19T00:40:00;17.97;;;2.30;;
572;SDS011;271;51.114;13.780;2023-09-19T00:42:49;17.40;;;2.00;;
572;SDS011;271;51.114;13.780;2023-09-19T00:45:37;19.23;;;2.90;;
572;SDS011;271;51.114;13.780;2023-09-19T00:48:27;17.33;;;2.80;;
572;SDS011;271;51.114;13.780;2023-09-19T00:51:15;17.30;;;2.40;;
572;SDS011;271;51.114;13.780;2023-09-19T00:54:06;17.20;;;2.37;;
572;SDS011;271;51.114;13.780;2023-09-19T00:56:54;19.53;;;2.53;;
572;SDS011;271;51.114;13.780;2023-09-19T00:59:42;18.50;;;2.67;;
572;SDS011;271;51.114;13.780;2023-09-19T01:02:31;17.00;;;2.70;;
572;SDS011;271;51.114;13.780;2023-09-19T01:05:18;18.43;;;3.30;;
572;SDS011;271;51.114;13.780;2023-09-19T01:08:09;18.83;;;2.63;;
572;SDS011;271;51.114;13.780;2023-09-19T01:10:59;17.47;;;2.70;;
572;SDS011;271;51.114;13.780;2023-09-19T01:14:01;17.87;;;2.50;;
572;SDS011;271;51.114;13.780;2023-09-19T01:17:00;18.80;;;3.20;;
572;SDS011;271;51.114;13.780;2023-09-19T01:23:13;18.23;;;3.10;;
572;SDS011;271;51.114;13.780;2023-09-19T01:26:15;17.60;;;2.63;;
572;SDS011;271;51.114;13.780;2023-09-19T01:29:17;18.77;;;3.07;;
572;SDS011;271;51.114;13.780;2023-09-19T01:32:22;17.10;;;2.70;;
572;SDS011;271;51.114;13.780;2023-09-19T01:35:11;17.60;;;3.07;;
572;SDS011;271;51.114;13.780;2023-09-19T01:37:59;16.90;;;2.40;;
572;SDS011;271;51.114;13.780;2023-09-19T01:40:51;16.67;;;2.40;;
572;SDS011;271;51.114;13.780;2023-09-19T01:43:45;16.90;;;2.50;;
572;SDS011;271;51.114;13.780;2023-09-19T01:46:37;16.97;;;2.50;;
572;SDS011;271;51.114;13.780;2023-09-19T01:49:33;17.63;;;2.83;;
572;SDS011;271;51.114;13.780;2023-09-19T01:52:32;16.87;;;2.57;;
572;SDS011;271;51.114;13.780;2023-09-19T01:55:28;18.43;;;2.40;;
572;SDS011;271;51.114;13.780;2023-09-19T01:58:18;18.10;;;2.67;;
572;SDS011;271;51.114;13.780;2023-09-19T02:01:13;17.13;;;2.50;;
572;SDS011;271;51.114;13.780;2023-09-19T02:04:05;16.83;;;2.30;;
572;SDS011;271;51.114;13.780;2023-09-19T02:06:56;16.87;;;2.83;;
572;SDS011;271;51.114;13.780;2023-09-19T02:09:44;16.93;;;2.53;;
572;SDS011;271;51.114;13.780;2023-09-19T02:12:33;17.70;;;2.93;;
572;SDS011;271;51.114;13.780;2023-09-19T02:15:21;19.00;;;3.27;;
572;SDS011;271;51.114;13.780;2023-09-19T02:18:09;17.00;;;2.90;;
572;SDS011;271;51.114;13.780;2023-09-19T02:20:57;16.63;;;2.43;;
572;SDS011;271;51.114;13.780;2023-09-19T02:23:46;16.70;;;2.67;;
572;SDS011;271;51.114;13.780;2023-09-19T02:26:34;16.43;;;2.40;;
572;SDS011;271;51.114;13.780;2023-09-19T02:29:22;20.70;;;2.50;;
572;SDS011;271;51.114;13.780;2023-09-19T02:32:10;17.00;;;3.00;;
572;SDS011;271;51.114;13.780;2023-09-19T02:34:58;17.27;;;2.60;;
572;SDS011;271;51.114;13.780;2023-09-19T02:37:46;16.40;;;2.00;;
572;SDS011;271;51.114;13.780;2023-09-19T02:40:35;16.80;;;2.80;;
572;SDS011;271;51.114;13.780;2023-09-19T02:43:23;17.00;;;3.10;;
572;SDS011;271;51.114;13.780;2023-09-19T02:46:11;17.17;;;2.33;;
572;SDS011;271;51.114;13.780;2023-09-19T02:48:59;16.60;;;2.40;;
572;SDS011;271;51.114;13.780;2023-09-19T02:51:47;18.00;;;2.63;;
572;SDS011;271;51.114;13.780;2023-09-19T02:54:35;16.90;;;2.50;;
572;SDS011;271;51.114;13.780;2023-09-19T02:57:25;17.17;;;3.60;;
572;SDS011;271;51.114;13.780;2023-09-19T03:00:13;17.03;;;2.30;;
572;SDS011;271;51.114;13.780;2023-09-19T03:03:02;19.93;;;2.73;;
572;SDS011;271;51.114;13.780;2023-09-19T03:05:51;16.40;;;2.30;;
572;SDS011;271;51.114;13.780;2023-09-19T03:08:41;16.50;;;2.70;;
572;SDS011;271;51.114;13.780;2023-09-19T03:11:29;17.20;;;2.53;;
572;SDS011;271;51.114;13.780;2023-09-19T03:14:19;17.07;;;2.80;;
572;SDS011;271;51.114;13.780;2023-09-19T03:17:07;18.90;;;2.97;;
572;SDS011;271;51.114;13.780;2023-09-19T03:19:55;18.77;;;2.50;;
572;SDS011;271;51.114;13.780;2023-09-19T03:22:43;16.53;;;2.60;;
572;SDS011;271;51.114;13.780;2023-09-19T03:25:33;17.77;;;3.13;;
572;SDS011;271;51.114;13.780;2023-09-19T03:28:21;17.70;;;3.10;;
572;SDS011;271;51.114;13.780;2023-09-19T03:31:11;16.60;;;2.40;;
572;SDS011;271;51.114;13.780;2023-09-19T03:33:59;16.43;;;2.10;;
572;SDS011;271;51.114;13.780;2023-09-19T03:36:47;16.30;;;2.23;;
572;SDS011;271;51.114;13.780;2023-09-19T03:39:35;16.73;;;2.00;;
572;SDS011;271;51.114;13.780;2023-09-19T03:42:23;16.87;;;1.87;;
572;SDS011;271;51.114;13.780;2023-09-19T03:45:12;15.90;;;1.80;;
572;SDS011;271;51.114;13.780;2023-09-19T03:48:06;16.00;;;1.70;;
572;SDS011;271;51.114;13.780;2023-09-19T03:50:55;16.20;;;1.73;;
572;SDS011;271;51.114;13.780;2023-09-19T03:53:43;16.67;;;1.87;;
572;SDS011;271;51.114;13.780;2023-09-19T03:56:31;19.03;;;2.47;;
572;SDS011;271;51.114;13.780;2023-09-19T03:59:18;16.60;;;1.83;;
572;SDS011;271;51.114;13.780;2023-09-19T04:02:06;16.47;;;1.80;;
572;SDS011;271;51.114;13.780;2023-09-19T04:04:59;16.30;;;1.60;;
572;SDS011;271;51.114;13.780;2023-09-19T04:07:46;15.80;;;1.77;;
572;SDS011;271;51.114;13.780;2023-09-19T04:10:34;15.57;;;1.47;;
572;SDS011;271;51.114;13.780;2023-09-19T04:13:22;15.77;;;1.80;;
572;SDS011;271;51.114;13.780;2023-09-19T04:16:10;16.10;;;1.70;;
572;SDS011;271;51.114;13.780;2023-09-19T04:18:57;17.10;;;3.33;;
572;SDS011;271;51.114;13.780;2023-09-19T04:21:47;16.43;;;1.87;;
572;SDS011;271;51.114;13.780;2023-09-19T04:24:34;16.60;;;1.63;;
572;SDS011;271;51.114;13.780;2023-09-19T04:27:23;15.33;;;1.70;;
572;SDS011;271;51.114;13.780;2023-09-19T04:30:11;17.03;;;1.53;;
572;SDS011;271;51.114;13.780;2023-09-19T04:33:00;17.90;;;1.80;;
572;SDS011;271;51.114;13.780;2023-09-19T04:35:49;15.20;;;1.40;;
572;SDS011;271;51.114;13.780;2023-09-19T04:38:38;16.37;;;1.50;;
572;SDS011;271;51.114;13.780;2023-09-19T04:41:27;15.20;;;1.50;;
572;SDS011;271;51.114;13.780;2023-09-19T04:44:14;15.70;;;1.60;;
572;SDS011;271;51.114;13.780;2023-09-19T04:47:02;16.07;;;1.60;;
572;SDS011;271;51.114;13.780;2023-09-19T04:49:51;19.50;;;2.00;;
572;SDS011;271;51.114;13.780;2023-09-19T04:52:39;16.30;;;1.73;;
572;SDS011;271;51.114;13.780;2023-09-19T04:55:31;16.37;;;1.77;;
572;SDS011;271;51.114;13.780;2023-09-19T04:58:19;16.87;;;2.30;;
572;SDS011;271;51.114;13.780;2023-09-19T05:01:06;15.37;;;2.00;;
572;SDS011;271;51.114;13.780;2023-09-19T05:03:57;15.33;;;1.40;;
572;SDS011;271;51.114;13.780;2023-09-19T05:06:45;16.13;;;2.17;;
572;SDS011;271;51.114;13.780;2023-09-19T05:09:33;16.20;;;1.80;;
572;SDS011;271;51.114;13.780;2023-09-19T05:12:23;16.70;;;1.83;;
572;SDS011;271;51.114;13.780;2023-09-19T05:15:10;15.87;;;1.70;;
572;SDS011;271;51.114;13.780;2023-09-19T05:17:58;17.23;;;1.93;;
572;SDS011;271;51.114;13.780;2023-09-19T05:20:46;16.20;;;1.67;;
572;SDS011;271;51.114;13.780;2023-09-19T05:23:35;15.47;;;1.70;;
572;SDS011;271;51.114;13.780;2023-09-19T05:26:23;15.10;;;1.77;;
572;SDS011;271;51.114;13.780;2023-09-19T05:29:12;18.87;;;1.90;;
572;SDS011;271;51.114;13.780;2023-09-19T05:32:00;15.53;;;1.97;;
572;SDS011;271;51.114;13.780;2023-09-19T05:34:49;16.90;;;1.70;;
572;SDS011;271;51.114;13.780;2023-09-19T05:37:38;15.60;;;1.70;;
572;SDS011;271;51.114;13.780;2023-09-19T05:40:26;15.50;;;1.33;;
572;SDS011;271;51.114;13.780;2023-09-19T05:43:14;16.30;;;1.90;;
572;SDS011;271;51.114;13.780;2023-09-19T05:46:03;15.73;;;1.93;;
572;SDS011;271;51.114;13.780;2023-09-19T05:48:51;15.23;;;1.60;;
572;SDS011;271;51.114;13.780;2023-09-19T05:51:39;15.40;;;1.60;;
572;SDS011;271;51.114;13.780;2023-09-19T05:54:26;17.03;;;2.00;;
572;SDS011;271;51.114;13.780;2023-09-19T05:57:14;16.53;;;1.70;;
572;SDS011;271;51.114;13.780;2023-09-19T06:00:02;15.67;;;1.70;;
572;SDS011;271;51.114;13.780;2023-09-19T06:02:56;16.60;;;1.80;;
572;SDS011;271;51.114;13.780;2023-09-19T06:05:45;16.30;;;1.90;;
572;SDS011;271;51.114;13.780;2023-09-19T06:08:35;16.53;;;1.40;;
572;SDS011;271;51.114;13.780;2023-09-19T06:11:23;16.50;;;2.20;;
572;SDS011;271;51.114;13.780;2023-09-19T06:14:12;16.60;;;1.87;;
572;SDS011;271;51.114;13.780;2023-09-19T06:17:00;15.37;;;1.60;;
572;SDS011;271;51.114;13.780;2023-09-19T06:19:49;16.13;;;1.77;;
572;SDS011;271;51.114;13.780;2023-09-19T06:22:37;16.27;;;1.87;;
572;SDS011;271;51.114;13.780;2023-09-19T06:25:24;17.60;;;1.50;;
572;SDS011;271;51.114;13.780;2023-09-19T06:28:14;16.70;;;1.80;;
572;SDS011;271;51.114;13.780;2023-09-19T06:31:04;16.20;;;1.90;;
572;SDS011;271;51.114;13.780;2023-09-19T06:33:55;15.87;;;1.80;;
572;SDS011;271;51.114;13.780;2023-09-19T06:36:46;16.70;;;1.60;;
572;SDS011;271;51.114;13.780;2023-09-19T06:39:33;17.10;;;2.20;;
572;SDS011;271;51.114;13.780;2023-09-19T06:42:21;16.97;;;1.60;;
572;SDS011;271;51.114;13.780;2023-09-19T06:45:09;15.53;;;1.70;;
572;SDS011;271;51.114;13.780;2023-09-19T06:47:59;15.90;;;1.53;;
572;SDS011;271;51.114;13.780;2023-09-19T06:50:48;15.90;;;1.40;;
572;SDS011;271;51.114;13.780;2023-09-19T06:53:37;17.63;;;1.43;;
572;SDS011;271;51.114;13.780;2023-09-19T06:56:26;16.33;;;1.40;;
572;SDS011;271;51.114;13.780;2023-09-19T06:59:13;16.50;;;1.80;;
572;SDS011;271;51.114;13.780;2023-09-19T07:02:02;15.37;;;1.60;;
572;SDS011;271;51.114;13.780;2023-09-19T07:04:51;14.73;;;1.37;;
572;SDS011;271;51.114;13.780;2023-09-19T07:07:39;15.87;;;1.40;;
572;SDS011;271;51.114;13.780;2023-09-19T07:10:28;15.33;;;1.43;;
572;SDS011;271;51.114;13.780;2023-09-19T07:13:16;17.57;;;1.40;;
572;SDS011;271;51.114;13.780;2023-09-19T07:16:04;14.20;;;1.23;;
572;SDS011;271;51.114;13.780;2023-09-19T07:18:54;15.43;;;1.40;;
572;SDS011;271;51.114;13.780;2023-09-19T07:21:43;15.50;;;1.70;;
572;SDS011;271;51.114;13.780;2023-09-19T07:24:33;14.63;;;1.50;;
572;SDS011;271;51.114;13.780;2023-09-19T07:27:23;16.80;;;1.60;;
572;SDS011;271;51.114;13.780;2023-09-19T07:30:11;14.20;;;1.20;;
572;SDS011;271;51.114;13.780;2023-09-19T07:33:00;15.23;;;1.50;;
572;SDS011;271;51.114;13.780;2023-09-19T07:35:48;16.20;;;1.57;;
572;SDS011;271;51.114;13.780;2023-09-19T07:38:37;15.07;;;1.47;;
572;SDS011;271;51.114;13.780;2023-09-19T07:41:24;14.40;;;1.80;;
572;SDS011;271;51.114;13.780;2023-09-19T07:44:15;14.53;;;1.40;;
572;SDS011;271;51.114;13.780;2023-09-19T07:47:03;13.97;;;1.80;;
572;SDS011;271;51.114;13.780;2023-09-19T07:49:50;14.57;;;1.60;;
572;SDS011;271;51.114;13.780;2023-09-19T07:52:41;13.73;;;1.20;;
572;SDS011;271;51.114;13.780;2023-09-19T07:55:29;15.20;;;1.30;;
572;SDS011;271;51.114;13.780;2023-09-19T07:58:19;14.40;;;1.43;;
572;SDS011;271;51.114;13.780;2023-09-19T08:01:10;15.00;;;1.57;;
572;SDS011;271;51.114;13.780;2023-09-19T08:03:59;14.47;;;1.50;;
572;SDS011;271;51.114;13.780;2023-09-19T08:06:47;15.10;;;1.50;;
572;SDS011;271;51.114;13.780;2023-09-19T08:09:37;16.83;;;1.50;;
572;SDS011;271;51.114;13.780;2023-09-19T08:12:25;14.63;;;1.30;;
572;SDS011;271;51.114;13.780;2023-09-19T08:15:13;15.30;;;1.30;;
572;SDS011;271;51.114;13.780;2023-09-19T08:18:03;14.90;;;1.67;;
572;SDS011;271;51.114;13.780;2023-09-19T08:20:51;14.30;;;1.30;;
572;SDS011;271;51.114;13.780;2023-09-19T08:23:42;13.97;;;1.07;;
572;SDS011;271;51.114;13.780;2023-09-19T08:26:30;14.20;;;1.10;;
572;SDS011;271;51.114;13.780;2023-09-19T08:29:18;13.93;;;1.33;;
572;SDS011;271;51.114;13.780;2023-09-19T08:32:06;14.27;;;1.40;;
572;SDS011;271;51.114;13.780;2023-09-19T08:34:58;14.80;;;2.00;;
572;SDS011;271;51.114;13.780;2023-09-19T08:37:45;15.13;;;1.33;;
572;SDS011;271;51.114;13.780;2023-09-19T08:40:36;13.77;;;1.10;;
572;SDS011;271;51.114;13.780;2023-09-19T08:43:25;14.23;;;1.40;;
572;SDS011;271;51.114;13.780;2023-09-19T08:46:15;14.53;;;1.30;;
572;SDS011;271;51.114;13.780;2023-09-19T08:49:05;14.70;;;1.30;;
572;SDS011;271;51.114;13.780;2023-09-19T08:52:01;13.67;;;1.13;;
572;SDS011;271;51.114;13.780;2023-09-19T08:54:57;15.27;;;1.13;;
572;SDS011;271;51.114;13.780;2023-09-19T08:57:48;14.70;;;1.50;;
572;SDS011;271;51.114;13.780;2023-09-19T09:00:38;14.07;;;1.40;;
572;SDS011;271;51.114;13.780;2023-09-19T09:03:36;14.37;;;1.20;;
572;SDS011;271;51.114;13.780;2023-09-19T09:06:27;13.90;;;1.20;;
572;SDS011;271;51.114;13.780;2023-09-19T09:09:19;15.10;;;1.40;;
572;SDS011;271;51.114;13.780;2023-09-19T09:12:08;15.77;;;1.20;;
572;SDS011;271;51.114;13.780;2023-09-19T09:14:59;16.97;;;1.73;;
572;SDS011;271;51.114;13.780;2023-09-19T09:17:49;13.53;;;1.20;;
572;SDS011;271;51.114;13.780;2023-09-19T09:20:38;13.63;;;1.10;;
572;SDS011;271;51.114;13.780;2023-09-19T09:23:27;14.97;;;1.20;;
572;SDS011;271;51.114;13.780;2023-09-19T09:26:17;13.83;;;1.30;;
572;SDS011;271;51.114;13.780;2023-09-19T09:29:41;15.87;;;1.20;;
572;SDS011;271;51.114;13.780;2023-09-19T09:32:30;13.67;;;1.20;;
572;SDS011;271;51.114;13.780;2023-09-19T09:35:20;13.80;;;1.30;;
572;SDS011;271;51.114;13.780;2023-09-19T09:38:08;13.73;;;1.10;;
572;SDS011;271;51.114;13.780;2023-09-19T09:40:56;14.30;;;1.03;;
572;SDS011;271;51.114;13.780;2023-09-19T09:43:53;13.37;;;1.00;;
572;SDS011;271;51.114;13.780;2023-09-19T09:46:44;15.80;;;1.23;;
572;SDS011;271;51.114;13.780;2023-09-19T09:50:06;14.50;;;1.10;;
572;SDS011;271;51.114;13.780;2023-09-19T09:52:53;14.03;;;1.10;;
572;SDS011;271;51.114;13.780;2023-09-19T09:56:03;14.20;;;1.13;;
572;SDS011;271;51.114;13.780;2023-09-19T09:58:54;14.80;;;1.10;;
572;SDS011;271;51.114;13.780;2023-09-19T10:01:48;14.60;;;1.00;;
572;SDS011;271;51.114;13.780;2023-09-19T10:04:36;14.37;;;1.20;;
572;SDS011;271;51.114;13.780;2023-09-19T10:07:37;14.57;;;1.50;;
572;SDS011;271;51.114;13.780;2023-09-19T10:10:30;14.30;;;1.40;;
572;SDS011;271;51.114;13.780;2023-09-19T10:13:39;15.17;;;1.57;;
572;SDS011;271;51.114;13.780;2023-09-19T10:16:29;14.70;;;1.43;;
572;SDS011;271;51.114;13.780;2023-09-19T10:19:20;14.00;;;1.40;;
572;SDS011;271;51.114;13.780;2023-09-19T10:22:12;14.20;;;1.23;;
572;SDS011;271;51.114;13.780;2023-09-19T10:25:02;13.93;;;1.40;;
572;SDS011;271;51.114;13.780;2023-09-19T10:27:54;14.13;;;1.13;;
572;SDS011;271;51.114;13.780;2023-09-19T10:30:45;14.50;;;1.20;;
572;SDS011;271;51.114;13.780;2023-09-19T10:33:38;13.80;;;1.20;;
572;SDS011;271;51.114;13.780;2023-09-19T10:36:36;14.97;;;1.30;;
572;SDS011;271;51.114;13.780;2023-09-19T10:39:28;14.10;;;1.40;;
572;SDS011;271;51.114;13.780;2023-09-19T10:42:19;14.90;;;1.50;;
572;SDS011;271;51.114;13.780;2023-09-19T10:45:07;13.80;;;1.20;;
572;SDS011;271;51.114;13.780;2023-09-19T10:47:59;14.30;;;1.10;;
572;SDS011;271;51.114;13.780;2023-09-19T10:50:51;14.00;;;1.03;;
572;SDS011;271;51.114;13.780;2023-09-19T10:53:41;14.80;;;1.37;;
572;SDS011;271;51.114;13.780;2023-09-19T10:56:34;13.93;;;1.13;;
572;SDS011;271;51.114;13.780;2023-09-19T10:59:24;15.47;;;1.33;;
572;SDS011;271;51.114;13.780;2023-09-19T11:02:20;14.70;;;1.60;;
572;SDS011;271;51.114;13.780;2023-09-19T11:05:12;14.10;;;1.30;;
572;SDS011;271;51.114;13.780;2023-09-19T11:08:05;13.87;;;1.23;;
572;SDS011;271;51.114;13.780;2023-09-19T11:10:58;14.37;;;1.43;;
572;SDS011;271;51.114;13.780;2023-09-19T11:20:32;14.20;;;1.37;;
572;SDS011;271;51.114;13.780;2023-09-19T11:23:28;14.73;;;1.57;;
572;SDS011;271;51.114;13.780;2023-09-19T11:26:32;13.90;;;1.40;;
572;SDS011;271;51.114;13.780;2023-09-19T11:29:30;13.77;;;1.27;;
572;SDS011;271;51.114;13.780;2023-09-19T11:35:58;13.77;;;1.30;;
572;SDS011;271;51.114;13.780;2023-09-19T11:38:58;15.83;;;1.33;;
572;SDS011;271;51.114;13.780;2023-09-19T11:41:57;14.27;;;1.83;;
572;SDS011;271;51.114;13.780;2023-09-19T11:44:46;13.93;;;1.30;;
572;SDS011;271;51.114;13.780;2023-09-19T11:47:37;16.03;;;1.60;;
572;SDS011;271;51.114;13.780;2023-09-19T11:50:25;14.40;;;1.93;;
572;SDS011;271;51.114;13.780;2023-09-19T11:53:18;14.10;;;1.60;;
572;SDS011;271;51.114;13.780;2023-09-19T11:56:09;14.10;;;1.30;;
572;SDS011;271;51.114;13.780;2023-09-19T11:58:57;14.43;;;1.40;;
572;SDS011;271;51.114;13.780;2023-09-19T12:01:51;13.97;;;1.30;;
572;SDS011;271;51.114;13.780;2023-09-19T12:04:43;13.93;;;1.30;;
572;SDS011;271;51.114;13.780;2023-09-19T12:07:49;15.20;;;1.33;;
572;SDS011;271;51.114;13.780;2023-09-19T12:10:44;15.00;;;1.93;;
572;SDS011;271;51.114;13.780;2023-09-19T12:13:34;14.63;;;1.80;;
572;SDS011;271;51.114;13.780;2023-09-19T12:16:23;14.27;;;1.90;;
572;SDS011;271;51.114;13.780;2023-09-19T12:19:18;14.37;;;1.43;;
572;SDS011;271;51.114;13.780;2023-09-19T12:22:08;14.10;;;1.20;;
572;SDS011;271;51.114;13.780;2023-09-19T12:25:03;14.17;;;1.40;;
572;SDS011;271;51.114;13.780;2023-09-19T12:27:54;14.37;;;1.50;;
572;SDS011;271;51.114;13.780;2023-09-19T12:30:45;14.30;;;1.70;;
572;SDS011;271;51.114;13.780;2023-09-19T12:33:32;14.93;;;1.40;;
572;SDS011;271;51.114;13.780;2023-09-19T12:36:21;14.30;;;1.80;;
572;SDS011;271;51.114;13.780;2023-09-19T12:39:24;15.80;;;1.77;;
572;SDS011;271;51.114;13.780;2023-09-19T12:42:12;13.90;;;1.20;;
572;SDS011;271;51.114;13.780;2023-09-19T12:45:00;13.70;;;1.30;;
572;SDS011;271;51.114;13.780;2023-09-19T12:51:15;14.20;;;1.37;;
572;SDS011;271;51.114;13.780;2023-09-19T12:54:08;14.60;;;1.50;;
572;SDS011;271;51.114;13.780;2023-09-19T12:56:56;13.57;;;1.30;;
572;SDS011;271;51.114;13.780;2023-09-19T12:59:44;14.40;;;1.57;;
572;SDS011;271;51.114;13.780;2023-09-19T13:02:32;14.10;;;1.60;;
572;SDS011;271;51.114;13.780;2023-09-19T13:05:21;14.10;;;1.40;;
572;SDS011;271;51.114;13.780;2023-09-19T13:08:37;14.83;;;1.43;;
572;SDS011;271;51.114;13.780;2023-09-19T13:11:35;14.20;;;1.40;;
572;SDS011;271;51.114;13.780;2023-09-19T13:14:25;14.37;;;1.43;;
572;SDS011;271;51.114;13.780;2023-09-19T13:17:14;17.03;;;1.53;;
572;SDS011;271;51.114;13.780;2023-09-19T13:20:03;14.10;;;1.37;;
572;SDS011;271;51.114;13.780;2023-09-19T13:22:54;14.40;;;1.53;;
572;SDS011;271;51.114;13.780;2023-09-19T13:25:46;14.50;;;1.10;;
572;SDS011;271;51.114;13.780;2023-09-19T13:28:33;13.80;;;1.30;;
572;SDS011;271;51.114;13.780;2023-09-19T13:31:22;13.90;;;1.40;;
572;SDS011;271;51.114;13.780;2023-09-19T13:34:09;18.10;;;1.80;;
572;SDS011;271;51.114;13.780;2023-09-19T13:36:57;14.97;;;1.33;;
572;SDS011;271;51.114;13.780;2023-09-19T13:39:47;14.90;;;1.87;;
572;SDS011;271;51.114;13.780;2023-09-19T13:42:35;15.40;;;2.30;;
572;SDS011;271;51.114;13.780;2023-09-19T13:45:23;17.70;;;2.30;;
572;SDS011;271;51.114;13.780;2023-09-19T13:48:16;17.23;;;1.77;;
572;SDS011;271;51.114;13.780;2023-09-19T13:51:06;14.53;;;1.47;;
572;SDS011;271;51.114;13.780;2023-09-19T13:53:53;14.73;;;1.80;;
572;SDS011;271;51.114;13.780;2023-09-19T13:56:43;14.50;;;1.80;;
572;SDS011;271;51.114;13.780;2023-09-19T13:59:30;14.10;;;1.50;;
572;SDS011;271;51.114;13.780;2023-09-19T14:02:18;14.47;;;1.37;;
572;SDS011;271;51.114;13.780;2023-09-19T14:05:08;14.97;;;1.90;;
572;SDS011;271;51.114;13.780;2023-09-19T14:07:58;15.00;;;1.47;;
572;SDS011;271;51.114;13.780;2023-09-19T14:10:46;13.90;;;1.47;;
572;SDS011;271;51.114;13.780;2023-09-19T14:13:35;14.47;;;1.50;;
572;SDS011;271;51.114;13.780;2023-09-19T14:16:24;14.10;;;1.60;;
572;SDS011;271;51.114;13.780;2023-09-19T14:19:15;15.67;;;1.67;;
572;SDS011;271;51.114;13.780;2023-09-19T14:22:03;16.43;;;1.60;;
572;SDS011;271;51.114;13.780;2023-09-19T14:24:53;13.90;;;1.30;;
572;SDS011;271;51.114;13.780;2023-09-19T14:27:41;14.27;;;1.80;;
572;SDS011;271;51.114;13.780;2023-09-19T14:30:30;14.43;;;1.40;;
572;SDS011;271;51.114;13.780;2023-09-19T14:33:19;14.40;;;1.47;;
572;SDS011;271;51.114;13.780;2023-09-19T14:36:07;14.17;;;1.50;;
572;SDS011;271;51.114;13.780;2023-09-19T14:38:56;15.73;;;2.20;;
572;SDS011;271;51.114;13.780;2023-09-19T14:41:44;13.97;;;1.40;;
572;SDS011;271;51.114;13.780;2023-09-19T14:44:32;14.43;;;1.67;;
572;SDS011;271;51.114;13.780;2023-09-19T14:47:22;15.67;;;1.90;;
572;SDS011;271;51.114;13.780;2023-09-19T14:50:10;13.90;;;1.50;;
572;SDS011;271;51.114;13.780;2023-09-19T14:52:58;14.17;;;1.47;;
572;SDS011;271;51.114;13.780;2023-09-19T14:55:47;14.37;;;1.57;;
572;SDS011;271;51.114;13.780;2023-09-19T14:58:37;14.10;;;1.60;;
572;SDS011;271;51.114;13.780;2023-09-19T15:01:27;15.23;;;1.83;;
572;SDS011;271;51.114;13.780;2023-09-19T15:04:17;14.50;;;1.70;;
572;SDS011;271;51.114;13.780;2023-09-19T15:07:04;14.10;;;1.77;;
572;SDS011;271;51.114;13.780;2023-09-19T15:09:52;14.40;;;1.50;;
572;SDS011;271;51.114;13.780;2023-09-19T15:12:40;14.60;;;1.70;;
572;SDS011;271;51.114;13.780;2023-09-19T15:15:28;14.27;;;1.57;;
572;SDS011;271;51.114;13.780;2023-09-19T15:18:16;14.30;;;1.50;;
572;SDS011;271;51.114;13.780;2023-09-19T15:21:05;14.37;;;1.63;;
572;SDS011;271;51.114;13.780;2023-09-19T15:23:53;15.07;;;1.73;;
572;SDS011;271;51.114;13.780;2023-09-19T15:26:41;15.90;;;2.00;;
572;SDS011;271;51.114;13.780;2023-09-19T15:29:30;14.20;;;1.50;;
572;SDS011;271;51.114;13.780;2023-09-19T15:32:18;16.83;;;2.10;;
572;SDS011;271;51.114;13.780;2023-09-19T15:35:07;16.93;;;1.77;;
572;SDS011;271;51.114;13.780;2023-09-19T15:37:57;14.33;;;1.83;;
572;SDS011;271;51.114;13.780;2023-09-19T15:40:46;16.43;;;1.83;;
572;SDS011;271;51.114;13.780;2023-09-19T15:43:34;14.53;;;1.70;;
572;SDS011;271;51.114;13.780;2023-09-19T15:46:22;14.70;;;2.03;;
572;SDS011;271;51.114;13.780;2023-09-19T15:49:13;15.10;;;2.07;;
572;SDS011;271;51.114;13.780;2023-09-19T15:52:01;14.37;;;1.80;;
572;SDS011;271;51.114;13.780;2023-09-19T15:54:50;14.30;;;1.30;;
572;SDS011;271;51.114;13.780;2023-09-19T15:57:38;15.90;;;2.10;;
572;SDS011;271;51.114;13.780;2023-09-19T16:00:26;15.90;;;2.27;;
572;SDS011;271;51.114;13.780;2023-09-19T16:03:16;14.70;;;2.40;;
572;SDS011;271;51.114;13.780;2023-09-19T16:06:07;15.00;;;2.20;;
572;SDS011;271;51.114;13.780;2023-09-19T16:08:57;15.20;;;1.77;;
572;SDS011;271;51.114;13.780;2023-09-19T16:11:50;16.37;;;3.00;;
572;SDS011;271;51.114;13.780;2023-09-19T16:14:38;14.37;;;1.90;;
572;SDS011;271;51.114;13.780;2023-09-19T16:17:26;16.33;;;2.13;;
572;SDS011;271;51.114;13.780;2023-09-19T16:20:14;15.17;;;1.90;;
572;SDS011;271;51.114;13.780;2023-09-19T16:23:02;15.30;;;2.17;;
572;SDS011;271;51.114;13.780;2023-09-19T16:25:59;15.10;;;2.00;;
572;SDS011;271;51.114;13.780;2023-09-19T16:28:52;14.83;;;1.90;;
572;SDS011;271;51.114;13.780;2023-09-19T16:31:42;15.03;;;2.30;;
572;SDS011;271;51.114;13.780;2023-09-19T16:34:31;14.80;;;2.23;;
572;SDS011;271;51.114;13.780;2023-09-19T16:37:18;16.10;;;1.80;;
572;SDS011;271;51.114;13.780;2023-09-19T16:40:07;15.23;;;2.40;;
572;SDS011;271;51.114;13.780;2023-09-19T16:42:55;15.80;;;1.97;;
572;SDS011;271;51.114;13.780;2023-09-19T16:45:52;15.00;;;2.27;;
572;SDS011;271;51.114;13.780;2023-09-19T16:48:54;15.33;;;2.20;;
572;SDS011;271;51.114;13.780;2023-09-19T16:51:42;16.70;;;2.00;;
572;SDS011;271;51.114;13.780;2023-09-19T16:54:29;15.73;;;2.00;;
572;SDS011;271;51.114;13.780;2023-09-19T16:57:20;18.33;;;2.13;;
572;SDS011;271;51.114;13.780;2023-09-19T17:00:09;16.60;;;2.50;;
572;SDS011;271;51.114;13.780;2023-09-19T17:03:01;15.17;;;2.30;;
572;SDS011;271;51.114;13.780;2023-09-19T17:05:50;15.00;;;2.07;;
572;SDS011;271;51.114;13.780;2023-09-19T17:08:39;15.50;;;2.13;;
572;SDS011;271;51.114;13.780;2023-09-19T17:11:29;16.37;;;2.00;;
572;SDS011;271;51.114;13.780;2023-09-19T17:14:17;15.17;;;2.30;;
572;SDS011;271;51.114;13.780;2023-09-19T17:17:04;16.80;;;2.60;;
572;SDS011;271;51.114;13.780;2023-09-19T17:19:53;15.87;;;2.80;;
572;SDS011;271;51.114;13.780;2023-09-19T17:22:41;16.00;;;2.70;;
572;SDS011;271;51.114;13.780;2023-09-19T17:25:29;16.50;;;3.40;;
572;SDS011;271;51.114;13.780;2023-09-19T17:28:18;15.47;;;2.40;;
572;SDS011;271;51.114;13.780;2023-09-19T17:31:08;15.80;;;2.17;;
572;SDS011;271;51.114;13.780;2023-09-19T17:33:57;18.83;;;2.83;;
572;SDS011;271;51.114;13.780;2023-09-19T17:36:46;14.87;;;1.97;;
572;SDS011;271;51.114;13.780;2023-09-19T17:39:34;15.87;;;2.33;;
572;SDS011;271;51.114;13.780;2023-09-19T17:42:22;16.03;;;2.33;;
572;SDS011;271;51.114;13.780;2023-09-19T17:45:10;15.10;;;2.10;;
572;SDS011;271;51.114;13.780;2023-09-19T17:47:59;17.50;;;2.60;;
572;SDS011;271;51.114;13.780;2023-09-19T17:50:47;16.50;;;2.63;;
572;SDS011;271;51.114;13.780;2023-09-19T17:53:37;16.33;;;2.53;;